Time;durP1;ratioP1;P1;durP2;ratioP2;P2;SDS_P1;SDS_P2;PMS_P1;PMS_P2;Temp;Humidity;BMP_temperature;BMP_pressure;BME280_temperature;BME280_humidity;BME280_pressure;Samples;Min_cycle;Max_cycle;Signal;HPM_P1;HPM_P2
2024/03/24 00:00:33;;;;;;;13.52;10.70;;;;;;;;;;6208121;23;20016;-75
2024/03/24 00:03:02;;;;;;;11.45;9.93;;;;;;;;;;6207976;22;20066;-73
2024/03/24 00:05:28;;;;;;;11.90;10.70;;;;;;;;;;6313054;22;20012;-74
2024/03/24 00:07:54;;;;;;;10.98;9.88;;;;;;;;;;6313116;22;20054;-74
2024/03/24 00:10:20;;;;;;;11.63;10.40;;;;;;;;;;6313525;22;20016;-74
2024/03/24 00:12:46;;;;;;;12.65;10.45;;;;;;;;;;6313886;22;20377;-73
2024/03/24 00:15:12;;;;;;;15.43;10.20;;;;;;;;;;6208711;23;20019;-73
2024/03/24 00:17:38;;;;;;;13.35;10.52;;;;;;;;;;6208447;23;20395;-73
2024/03/24 00:20:05;;;;;;;12.18;10.93;;;;;;;;;;6208733;22;20020;-73
2024/03/24 00:22:31;;;;;;;11.70;10.50;;;;;;;;;;6311829;22;20028;-74
2024/03/24 00:24:57;;;;;;;14.00;10.70;;;;;;;;;;6313218;22;20027;-74
2024/03/24 00:27:23;;;;;;;12.27;10.82;;;;;;;;;;6314224;22;20016;-74
2024/03/24 00:29:49;;;;;;;12.20;9.65;;;;;;;;;;6287689;22;20021;-73
2024/03/24 00:32:15;;;;;;;11.85;10.60;;;;;;;;;;6286188;22;20029;-74
2024/03/24 00:34:41;;;;;;;15.02;11.73;;;;;;;;;;6207804;23;20133;-72
2024/03/24 00:37:06;;;;;;;14.05;11.27;;;;;;;;;;6208267;23;20009;-73
2024/03/24 00:39:32;;;;;;;14.18;11.73;;;;;;;;;;6207954;23;20013;-73
2024/03/24 00:41:58;;;;;;;16.67;11.85;;;;;;;;;;6180982;22;20445;-73
2024/03/24 00:44:24;;;;;;;18.13;12.43;;;;;;;;;;6286792;22;20012;-73
2024/03/24 00:46:51;;;;;;;13.98;11.50;;;;;;;;;;6208301;23;20055;-74
2024/03/24 00:49:17;;;;;;;20.92;14.55;;;;;;;;;;6312661;22;20017;-73
2024/03/24 00:51:42;;;;;;;14.07;10.23;;;;;;;;;;6206737;22;20508;-73
2024/03/24 00:54:09;;;;;;;15.30;11.13;;;;;;;;;;6312301;22;20449;-74
2024/03/24 00:56:35;;;;;;;15.52;12.15;;;;;;;;;;6312486;22;20103;-73
2024/03/24 00:59:01;;;;;;;13.70;10.80;;;;;;;;;;6208437;23;20074;-74
2024/03/24 01:01:27;;;;;;;15.55;11.30;;;;;;;;;;6311911;22;20480;-73
2024/03/24 01:03:53;;;;;;;18.50;12.55;;;;;;;;;;6287461;22;20019;-74
2024/03/24 01:06:19;;;;;;;15.88;11.18;;;;;;;;;;6208145;23;20077;-73
2024/03/24 01:08:45;;;;;;;15.23;10.93;;;;;;;;;;6312481;22;20025;-73
2024/03/24 01:11:11;;;;;;;19.63;11.20;;;;;;;;;;6207659;22;20021;-73
2024/03/24 01:13:37;;;;;;;19.60;11.60;;;;;;;;;;6286611;22;20009;-73
2024/03/24 01:16:04;;;;;;;18.60;12.15;;;;;;;;;;6208728;23;20480;-73
2024/03/24 01:18:30;;;;;;;21.27;12.55;;;;;;;;;;6207684;23;20147;-74
2024/03/24 01:20:56;;;;;;;20.35;13.05;;;;;;;;;;6207346;22;20009;-74
2024/03/24 01:23:22;;;;;;;19.20;11.73;;;;;;;;;;6208946;23;20101;-74
2024/03/24 01:25:48;;;;;;;21.45;12.82;;;;;;;;;;6313831;22;20021;-73
2024/03/24 01:28:17;;;;;;;22.67;13.00;;;;;;;;;;6208054;23;20017;-73
2024/03/24 01:30:43;;;;;;;24.38;12.70;;;;;;;;;;6206774;22;20012;-73
2024/03/24 01:33:09;;;;;;;29.85;14.32;;;;;;;;;;6312822;22;20524;-74
2024/03/24 01:35:35;;;;;;;20.10;11.90;;;;;;;;;;6207794;23;20472;-72
2024/03/24 01:38:01;;;;;;;21.45;12.13;;;;;;;;;;6286862;22;20016;-72
2024/03/24 01:40:27;;;;;;;26.48;12.25;;;;;;;;;;6312305;22;20338;-73
2024/03/24 01:42:53;;;;;;;22.65;11.25;;;;;;;;;;6311017;22;20518;-72
2024/03/24 01:45:19;;;;;;;24.00;12.65;;;;;;;;;;6312488;22;20385;-73
2024/03/24 01:47:45;;;;;;;19.75;9.95;;;;;;;;;;6207463;22;20456;-72
2024/03/24 01:50:12;;;;;;;18.67;10.25;;;;;;;;;;6207817;23;20051;-73
2024/03/24 01:52:38;;;;;;;26.55;12.75;;;;;;;;;;6285258;22;20036;-73
2024/03/24 01:55:04;;;;;;;30.00;12.77;;;;;;;;;;6313471;22;20058;-72
2024/03/24 01:57:31;;;;;;;29.65;12.75;;;;;;;;;;6314435;22;20008;-74
2024/03/24 01:59:57;;;;;;;22.58;10.00;;;;;;;;;;6314934;22;20012;-73
2024/03/24 02:02:23;;;;;;;27.10;12.52;;;;;;;;;;6260244;22;20020;-74
2024/03/24 02:04:49;;;;;;;21.40;11.52;;;;;;;;;;6286322;22;20088;-73
2024/03/24 02:07:15;;;;;;;30.77;13.00;;;;;;;;;;6208230;23;20020;-73
2024/03/24 02:09:45;;;;;;;34.67;13.48;;;;;;;;;;6311534;22;20028;-73
2024/03/24 02:12:11;;;;;;;33.53;13.20;;;;;;;;;;6311544;22;20150;-72
2024/03/24 02:14:37;;;;;;;30.17;12.15;;;;;;;;;;6286275;22;20009;-73
2024/03/24 02:17:03;;;;;;;32.67;12.68;;;;;;;;;;6312128;22;20528;-73
2024/03/24 02:19:29;;;;;;;32.92;13.02;;;;;;;;;;6207700;23;20026;-72
2024/03/24 02:21:55;;;;;;;31.95;14.73;;;;;;;;;;6207969;22;20013;-74
2024/03/24 02:24:21;;;;;;;38.65;13.18;;;;;;;;;;6207975;23;20020;-71
2024/03/24 02:26:47;;;;;;;32.75;12.82;;;;;;;;;;6312088;22;20326;-72
2024/03/24 02:29:13;;;;;;;31.58;13.38;;;;;;;;;;6311631;22;20499;-72
2024/03/24 02:31:42;;;;;;;32.20;13.27;;;;;;;;;;6310282;22;20040;-73
2024/03/24 02:34:09;;;;;;;36.42;13.25;;;;;;;;;;6207961;23;20017;-72
2024/03/24 02:36:34;;;;;;;33.33;14.50;;;;;;;;;;6207513;23;20456;-72
2024/03/24 02:39:00;;;;;;;38.42;13.48;;;;;;;;;;6312179;22;20008;-73
2024/03/24 02:41:26;;;;;;;34.20;14.88;;;;;;;;;;6311649;22;20051;-72
2024/03/24 02:43:52;;;;;;;50.78;18.45;;;;;;;;;;6312218;22;20013;-72
2024/03/24 02:46:18;;;;;;;36.85;15.50;;;;;;;;;;6208001;22;20017;-71
2024/03/24 02:48:44;;;;;;;33.55;15.40;;;;;;;;;;6311365;22;20032;-73
2024/03/24 02:51:10;;;;;;;23.40;11.48;;;;;;;;;;6311096;22;20379;-73
2024/03/24 02:53:35;;;;;;;32.78;14.60;;;;;;;;;;6311132;22;20040;-73
2024/03/24 02:56:01;;;;;;;28.73;13.60;;;;;;;;;;6312311;22;20104;-73
2024/03/24 02:58:27;;;;;;;37.05;15.88;;;;;;;;;;6261610;22;20344;-73
2024/03/24 03:00:53;;;;;;;34.25;15.27;;;;;;;;;;6311176;22;20024;-72
2024/03/24 03:03:19;;;;;;;35.80;15.02;;;;;;;;;;6207910;22;20016;-73
2024/03/24 03:05:45;;;;;;;34.13;14.95;;;;;;;;;;6311146;22;20357;-73
2024/03/24 03:08:11;;;;;;;41.28;17.08;;;;;;;;;;6338300;22;20432;-73
2024/03/24 03:10:38;;;;;;;35.55;16.20;;;;;;;;;;6207015;23;20457;-72
2024/03/24 03:13:04;;;;;;;35.75;13.63;;;;;;;;;;6285422;22;20021;-72
2024/03/24 03:15:30;;;;;;;26.23;13.18;;;;;;;;;;6310887;22;20019;-73
2024/03/24 03:17:56;;;;;;;28.40;13.77;;;;;;;;;;6209380;23;20040;-73
2024/03/24 03:20:22;;;;;;;30.13;14.40;;;;;;;;;;6286577;22;20036;-73
2024/03/24 03:22:48;;;;;;;21.00;11.05;;;;;;;;;;6206326;22;20017;-73
2024/03/24 03:25:14;;;;;;;30.17;13.90;;;;;;;;;;6312099;22;20009;-73
2024/03/24 03:27:42;;;;;;;25.83;14.20;;;;;;;;;;6312426;22;20428;-73
2024/03/24 03:30:08;;;;;;;25.52;13.07;;;;;;;;;;6207042;23;20021;-72
2024/03/24 03:32:34;;;;;;;26.83;14.00;;;;;;;;;;6284434;22;20070;-72
2024/03/24 03:35:00;;;;;;;26.85;13.93;;;;;;;;;;6285720;22;20038;-73
2024/03/24 03:37:26;;;;;;;22.42;12.30;;;;;;;;;;6311844;22;20009;-72
2024/03/24 03:39:52;;;;;;;23.70;12.82;;;;;;;;;;6311811;22;20095;-73
2024/03/24 03:42:18;;;;;;;30.02;15.35;;;;;;;;;;6285107;22;20044;-73
2024/03/24 03:44:46;;;;;;;26.35;13.60;;;;;;;;;;6310263;22;20013;-73
2024/03/24 03:47:14;;;;;;;26.48;14.75;;;;;;;;;;6311696;22;20017;-75
2024/03/24 03:49:40;;;;;;;23.73;12.70;;;;;;;;;;6206757;23;20097;-74
2024/03/24 03:52:06;;;;;;;28.60;13.95;;;;;;;;;;6310371;22;20016;-74
2024/03/24 03:54:32;;;;;;;30.35;14.27;;;;;;;;;;6213137;23;20023;-74
2024/03/24 03:56:58;;;;;;;33.85;17.35;;;;;;;;;;6320518;22;20013;-74
2024/03/24 03:59:24;;;;;;;26.65;15.23;;;;;;;;;;6295796;22;20013;-74
2024/03/24 04:01:50;;;;;;;23.33;12.85;;;;;;;;;;6215654;22;20021;-74
2024/03/24 04:04:16;;;;;;;29.58;14.82;;;;;;;;;;6321191;22;20034;-74
2024/03/24 04:06:43;;;;;;;27.77;13.90;;;;;;;;;;6208460;23;20016;-73
2024/03/24 04:09:15;;;;;;;23.90;13.75;;;;;;;;;;6311263;22;20025;-74
2024/03/24 04:11:41;;;;;;;22.98;13.32;;;;;;;;;;6205627;22;20024;-74
2024/03/24 04:14:07;;;;;;;22.65;13.02;;;;;;;;;;6312155;22;20039;-72
2024/03/24 04:16:33;;;;;;;30.20;13.27;;;;;;;;;;6311513;22;20020;-73
2024/03/24 04:18:59;;;;;;;27.42;13.25;;;;;;;;;;6310342;22;20012;-73
2024/03/24 04:21:25;;;;;;;29.60;13.73;;;;;;;;;;6205861;22;20051;-72
2024/03/24 04:23:51;;;;;;;19.10;12.10;;;;;;;;;;6310459;22;20042;-72
2024/03/24 04:26:17;;;;;;;22.55;12.52;;;;;;;;;;6311457;22;20009;-72
2024/03/24 04:28:45;;;;;;;24.05;12.13;;;;;;;;;;6313012;22;20035;-73
2024/03/24 04:31:11;;;;;;;20.77;11.57;;;;;;;;;;6206945;22;20061;-73
2024/03/24 04:33:37;;;;;;;27.08;12.60;;;;;;;;;;6313096;22;20048;-72
2024/03/24 04:36:04;;;;;;;19.83;12.38;;;;;;;;;;6208341;23;20032;-74
2024/03/24 04:38:30;;;;;;;28.83;14.65;;;;;;;;;;6208263;23;20440;-73
2024/03/24 04:40:56;;;;;;;23.33;13.05;;;;;;;;;;6286203;22;20016;-73
2024/03/24 04:43:22;;;;;;;21.20;11.50;;;;;;;;;;6208402;23;20360;-74
2024/03/24 04:45:50;;;;;;;15.82;10.70;;;;;;;;;;6207716;23;20483;-73
2024/03/24 04:48:17;;;;;;;29.17;13.50;;;;;;;;;;6286554;22;20027;-74
2024/03/24 04:50:45;;;;;;;16.20;9.13;;;;;;;;;;6207157;22;20016;-73
2024/03/24 04:53:11;;;;;;;23.92;12.32;;;;;;;;;;6208283;23;20004;-73
2024/03/24 04:55:37;;;;;;;26.33;12.73;;;;;;;;;;6313517;22;20013;-73
2024/03/24 04:58:03;;;;;;;23.17;11.27;;;;;;;;;;6208463;22;20012;-74
2024/03/24 05:00:29;;;;;;;22.30;12.02;;;;;;;;;;6287184;22;20013;-73
2024/03/24 05:02:54;;;;;;;20.25;12.40;;;;;;;;;;6312419;22;20020;-73
2024/03/24 05:05:22;;;;;;;22.38;12.57;;;;;;;;;;6313490;22;20009;-73
2024/03/24 05:07:48;;;;;;;23.20;12.38;;;;;;;;;;6310976;22;20013;-74
2024/03/24 05:10:14;;;;;;;23.50;11.48;;;;;;;;;;6312702;22;20024;-73
2024/03/24 05:12:40;;;;;;;20.33;11.05;;;;;;;;;;6312726;22;20018;-74
2024/03/24 05:15:06;;;;;;;24.80;13.93;;;;;;;;;;6313010;22;20035;-74
2024/03/24 05:17:32;;;;;;;22.05;13.40;;;;;;;;;;6208156;23;20066;-74
2024/03/24 05:19:58;;;;;;;22.00;11.98;;;;;;;;;;6207810;23;20008;-74
2024/03/24 05:22:24;;;;;;;26.08;12.60;;;;;;;;;;6180859;22;20017;-74
2024/03/24 05:24:50;;;;;;;21.13;12.68;;;;;;;;;;6207999;23;20008;-74
2024/03/24 05:27:16;;;;;;;18.95;11.48;;;;;;;;;;6157384;23;20143;-74
2024/03/24 05:29:41;;;;;;;14.48;10.05;;;;;;;;;;6286407;22;20461;-74
2024/03/24 05:32:07;;;;;;;23.35;11.93;;;;;;;;;;6311136;22;20107;-74
2024/03/24 05:34:33;;;;;;;23.10;11.93;;;;;;;;;;6208164;23;20484;-74
2024/03/24 05:39:46;;;;;;;23.25;11.05;;;;;;;;;;6207538;23;20019;-75
2024/03/24 05:42:12;;;;;;;21.13;11.38;;;;;;;;;;6311610;22;20017;-74
2024/03/24 05:44:39;;;;;;;23.73;11.75;;;;;;;;;;6200994;23;20047;-74
2024/03/24 05:47:04;;;;;;;25.00;11.90;;;;;;;;;;6185620;22;20013;-73
2024/03/24 05:49:30;;;;;;;22.55;12.40;;;;;;;;;;6331454;22;20018;-72
2024/03/24 05:51:58;;;;;;;25.48;13.48;;;;;;;;;;6303661;22;20598;-73
2024/03/24 05:54:24;;;;;;;27.25;14.90;;;;;;;;;;6333676;22;20014;-74
2024/03/24 06:08:34;;;;;;;35.83;15.40;;;;;;;;;;5101820;27;20415;-80
2024/03/24 06:11:00;;;;;;;19.85;10.15;;;;;;;;;;5076209;28;20032;-78
2024/03/24 06:13:26;;;;;;;32.08;14.50;;;;;;;;;;5077084;28;20024;-78
2024/03/24 06:15:52;;;;;;;28.92;14.23;;;;;;;;;;5077929;28;20032;-78
2024/03/24 06:18:18;;;;;;;18.50;9.77;;;;;;;;;;5074845;28;20040;-76
2024/03/24 06:20:44;;;;;;;18.10;10.15;;;;;;;;;;5075638;28;20046;-79
2024/03/24 06:23:10;;;;;;;26.23;12.77;;;;;;;;;;5081323;28;20132;-81
2024/03/24 06:25:36;;;;;;;23.10;12.32;;;;;;;;;;5084111;28;20040;-77
2024/03/24 06:28:03;;;;;;;14.95;9.75;;;;;;;;;;5079454;28;20104;-79
2024/03/24 06:30:29;;;;;;;21.63;11.38;;;;;;;;;;5060705;28;20116;-79
2024/03/24 06:32:55;;;;;;;21.50;12.82;;;;;;;;;;5078598;28;20021;-83
2024/03/24 06:35:20;;;;;;;19.02;10.32;;;;;;;;;;5102689;28;20064;-83
2024/03/24 06:37:46;;;;;;;17.73;10.48;;;;;;;;;;5080448;28;20044;-82
2024/03/24 06:40:12;;;;;;;17.75;12.00;;;;;;;;;;5085892;28;20674;-82
2024/03/24 06:42:48;;;;;;;21.90;12.38;;;;;;;;;;5085903;28;20040;-81
2024/03/24 06:45:14;;;;;;;23.80;13.02;;;;;;;;;;5095781;28;20032;-83
2024/03/24 06:47:40;;;;;;;28.85;15.13;;;;;;;;;;5095043;28;20044;-82
2024/03/24 06:50:06;;;;;;;17.15;11.65;;;;;;;;;;5091348;28;20037;-82
2024/03/24 06:52:33;;;;;;;13.48;9.48;;;;;;;;;;5101674;28;20013;-82
2024/03/24 06:54:59;;;;;;;22.77;11.93;;;;;;;;;;5089014;28;20024;-82
2024/03/24 06:57:25;;;;;;;24.77;12.55;;;;;;;;;;5082828;28;20040;-79
2024/03/24 06:59:51;;;;;;;23.95;12.90;;;;;;;;;;5082721;28;20028;-77
2024/03/24 07:02:16;;;;;;;12.30;8.80;;;;;;;;;;5086998;28;20029;-80
2024/03/24 07:04:42;;;;;;;15.60;10.32;;;;;;;;;;5090385;28;20040;-80
2024/03/24 07:07:08;;;;;;;19.63;11.05;;;;;;;;;;5091360;28;20052;-79
2024/03/24 07:09:34;;;;;;;18.30;12.38;;;;;;;;;;5074895;28;20054;-84
2024/03/24 07:12:00;;;;;;;14.68;10.27;;;;;;;;;;5272820;22;20068;-82
2024/03/24 07:14:27;;;;;;;5.85;4.50;;;;;;;;;;5075171;28;20024;-82
2024/03/24 07:16:52;;;;;;;16.88;10.07;;;;;;;;;;5086807;28;20042;-83
2024/03/24 07:19:18;;;;;;;11.65;7.63;;;;;;;;;;5080191;28;20123;-80
2024/03/24 07:21:47;;;;;;;14.77;9.35;;;;;;;;;;5060437;28;20040;-80
2024/03/24 07:24:13;;;;;;;11.68;8.10;;;;;;;;;;5068822;28;20412;-80
2024/03/24 07:26:39;;;;;;;13.82;8.82;;;;;;;;;;5071537;28;20021;-80
2024/03/24 07:29:05;;;;;;;18.48;10.27;;;;;;;;;;5079695;28;20837;-81
2024/03/24 07:31:31;;;;;;;9.32;7.47;;;;;;;;;;5072962;28;20037;-80
2024/03/24 07:33:57;;;;;;;11.88;9.48;;;;;;;;;;5067665;28;20091;-81
2024/03/24 07:36:23;;;;;;;12.07;9.38;;;;;;;;;;5068699;28;20032;-79
2024/03/24 07:38:49;;;;;;;11.80;8.20;;;;;;;;;;5055296;28;20051;-80
2024/03/24 07:41:17;;;;;;;15.13;9.63;;;;;;;;;;5065960;28;20111;-80
2024/03/24 07:43:43;;;;;;;16.85;9.32;;;;;;;;;;5068242;28;20039;-80
2024/03/24 07:46:09;;;;;;;13.27;8.70;;;;;;;;;;5065731;28;20039;-80
2024/03/24 07:48:36;;;;;;;16.17;8.80;;;;;;;;;;5062384;28;20098;-82
2024/03/24 07:51:02;;;;;;;12.95;8.77;;;;;;;;;;5071463;28;20119;-77
2024/03/24 07:53:28;;;;;;;9.80;7.43;;;;;;;;;;5079687;28;20028;-82
2024/03/24 07:55:54;;;;;;;17.55;11.35;;;;;;;;;;5045829;28;20033;-80
2024/03/24 07:58:20;;;;;;;16.75;10.55;;;;;;;;;;5050898;28;21026;-81
2024/03/24 08:00:45;;;;;;;12.13;8.75;;;;;;;;;;5061048;28;20036;-80
2024/03/24 08:03:11;;;;;;;12.10;7.70;;;;;;;;;;5046248;28;20079;-79
2024/03/24 08:05:38;;;;;;;11.05;7.95;;;;;;;;;;5051636;28;20054;-79
2024/03/24 08:08:04;;;;;;;9.85;7.88;;;;;;;;;;5044860;28;20554;-79
2024/03/24 08:10:30;;;;;;;13.10;9.52;;;;;;;;;;5053258;28;20029;-79
2024/03/24 08:12:56;;;;;;;15.48;9.20;;;;;;;;;;5059864;28;20087;-80
2024/03/24 08:15:22;;;;;;;17.02;9.65;;;;;;;;;;5053826;28;20095;-76
2024/03/24 08:17:48;;;;;;;17.42;11.02;;;;;;;;;;5051246;28;20048;-80
2024/03/24 08:20:14;;;;;;;10.93;7.03;;;;;;;;;;5040502;28;20044;-81
2024/03/24 08:22:40;;;;;;;8.75;6.90;;;;;;;;;;5065273;28;20036;-80
2024/03/24 08:25:06;;;;;;;19.85;10.20;;;;;;;;;;5040428;28;20048;-78
2024/03/24 08:27:32;;;;;;;12.57;8.20;;;;;;;;;;5044474;28;20041;-80
2024/03/24 08:29:58;;;;;;;10.32;8.32;;;;;;;;;;5052352;28;20170;-78
2024/03/24 08:32:24;;;;;;;13.15;9.13;;;;;;;;;;5048693;28;20033;-79
2024/03/24 08:34:51;;;;;;;13.02;8.50;;;;;;;;;;5048208;28;20037;-79
2024/03/24 08:37:17;;;;;;;15.60;10.27;;;;;;;;;;5045976;28;20131;-81
2024/03/24 08:39:42;;;;;;;15.40;10.43;;;;;;;;;;5042307;28;20060;-79
2024/03/24 08:42:08;;;;;;;13.75;10.65;;;;;;;;;;5043987;28;20024;-79
2024/03/24 08:44:34;;;;;;;17.42;11.13;;;;;;;;;;5042856;28;20813;-80
2024/03/24 08:47:00;;;;;;;18.92;12.13;;;;;;;;;;5051392;28;20132;-79
2024/03/24 08:49:26;;;;;;;21.63;12.68;;;;;;;;;;5063079;28;20336;-82
2024/03/24 08:51:52;;;;;;;24.92;14.85;;;;;;;;;;5040703;28;20481;-81
2024/03/24 08:54:18;;;;;;;18.45;11.90;;;;;;;;;;5062098;28;20409;-79
2024/03/24 08:56:46;;;;;;;22.58;14.75;;;;;;;;;;5040900;28;20033;-78
2024/03/24 08:59:12;;;;;;;16.95;12.38;;;;;;;;;;5044172;28;20049;-77
2024/03/24 09:01:38;;;;;;;22.23;12.93;;;;;;;;;;5031425;28;20437;-80
2024/03/24 09:04:04;;;;;;;21.67;16.20;;;;;;;;;;5046400;28;20378;-80
2024/03/24 09:06:30;;;;;;;31.27;16.58;;;;;;;;;;5050744;28;20409;-81
2024/03/24 09:08:56;;;;;;;26.13;15.70;;;;;;;;;;5047412;28;20033;-80
2024/03/24 09:11:24;;;;;;;30.98;15.65;;;;;;;;;;5046676;28;20057;-78
2024/03/24 09:13:50;;;;;;;31.42;17.25;;;;;;;;;;5044802;28;20056;-81
2024/03/24 09:16:16;;;;;;;21.08;12.05;;;;;;;;;;5045200;28;20045;-79
2024/03/24 09:18:45;;;;;;;24.67;12.98;;;;;;;;;;5042796;28;20060;-80
2024/03/24 09:21:11;;;;;;;19.42;11.77;;;;;;;;;;5044585;28;20497;-79
2024/03/24 09:23:37;;;;;;;22.25;12.50;;;;;;;;;;5044045;28;20498;-79
2024/03/24 09:26:03;;;;;;;17.75;12.52;;;;;;;;;;5026013;28;20367;-78
2024/03/24 09:28:29;;;;;;;24.23;13.07;;;;;;;;;;5040219;28;20374;-78
2024/03/24 09:30:58;;;;;;;25.45;14.77;;;;;;;;;;5040893;28;20124;-80
2024/03/24 09:33:24;;;;;;;17.15;9.93;;;;;;;;;;5040292;28;20037;-79
2024/03/24 09:35:50;;;;;;;23.73;14.27;;;;;;;;;;5024491;28;20507;-79
2024/03/24 09:38:16;;;;;;;14.88;10.95;;;;;;;;;;5038206;28;20155;-80
2024/03/24 09:40:42;;;;;;;12.90;10.30;;;;;;;;;;5044398;28;20084;-78
2024/03/24 09:43:08;;;;;;;24.27;14.60;;;;;;;;;;5050914;28;20040;-83
2024/03/24 09:45:34;;;;;;;14.88;12.00;;;;;;;;;;5064142;28;20195;-83
2024/03/24 09:48:02;;;;;;;23.38;15.18;;;;;;;;;;5065736;28;20044;-81
2024/03/24 09:50:28;;;;;;;23.85;16.25;;;;;;;;;;5061840;28;20123;-82
2024/03/24 09:52:56;;;;;;;25.40;13.75;;;;;;;;;;5058092;28;20034;-84
2024/03/24 09:55:23;;;;;;;23.77;14.90;;;;;;;;;;5045551;28;20033;-79
2024/03/24 09:57:50;;;;;;;33.15;18.60;;;;;;;;;;5047940;28;20041;-81
2024/03/24 10:00:16;;;;;;;19.40;13.23;;;;;;;;;;5042277;28;20033;-79
2024/03/24 10:02:42;;;;;;;12.32;11.10;;;;;;;;;;5043942;28;20354;-81
2024/03/24 10:05:08;;;;;;;23.60;15.65;;;;;;;;;;5046629;28;20037;-80
2024/03/24 10:07:33;;;;;;;15.48;11.80;;;;;;;;;;5041855;28;20041;-79
2024/03/24 10:09:59;;;;;;;15.18;11.82;;;;;;;;;;5042106;28;20925;-82
2024/03/24 10:12:44;;;;;;;16.20;11.73;;;;;;;;;;5038284;28;20054;-81
2024/03/24 10:15:20;;;;;;;17.27;12.23;;;;;;;;;;5066759;28;20032;-82
2024/03/24 10:18:06;;;;;;;22.20;13.95;;;;;;;;;;5029834;28;20040;-81
2024/03/24 10:20:37;;;;;;;14.10;11.65;;;;;;;;;;5040926;28;20071;-80
2024/03/24 10:23:03;;;;;;;16.83;12.23;;;;;;;;;;5055028;28;20116;-83
2024/03/24 10:25:30;;;;;;;17.27;10.75;;;;;;;;;;5062442;28;20045;-84
2024/03/24 10:27:56;;;;;;;19.70;12.55;;;;;;;;;;5055434;28;20063;-85
2024/03/24 10:30:22;;;;;;;25.88;14.98;;;;;;;;;;5064398;28;20044;-81
2024/03/24 10:32:48;;;;;;;21.77;13.65;;;;;;;;;;5053731;28;20060;-83
2024/03/24 10:35:14;;;;;;;23.35;14.90;;;;;;;;;;5039053;28;20045;-81
2024/03/24 10:37:40;;;;;;;14.20;10.57;;;;;;;;;;5053175;28;20424;-81
2024/03/24 10:40:06;;;;;;;28.90;16.85;;;;;;;;;;5060496;28;20021;-83
2024/03/24 10:42:32;;;;;;;15.98;11.73;;;;;;;;;;5056846;28;20076;-84
2024/03/24 10:45:04;;;;;;;11.25;7.93;;;;;;;;;;5056211;28;20037;-83
2024/03/24 10:47:31;;;;;;;17.05;11.32;;;;;;;;;;5062452;28;20081;-80
2024/03/24 10:49:57;;;;;;;22.88;13.73;;;;;;;;;;5060577;28;20021;-84
2024/03/24 10:52:23;;;;;;;33.40;14.13;;;;;;;;;;5056016;28;20021;-83
2024/03/24 10:54:48;;;;;;;17.67;12.20;;;;;;;;;;5045683;28;20045;-84
2024/03/24 10:57:14;;;;;;;21.52;11.30;;;;;;;;;;5058776;28;20049;-82
2024/03/24 10:59:40;;;;;;;22.63;11.52;;;;;;;;;;5048300;28;20509;-79
2024/03/24 11:02:08;;;;;;;25.50;12.10;;;;;;;;;;5034081;28;20037;-80
2024/03/24 11:04:34;;;;;;;16.60;11.13;;;;;;;;;;5049198;28;20037;-81
2024/03/24 11:06:59;;;;;;;21.23;11.85;;;;;;;;;;5057519;28;20037;-84
2024/03/24 11:09:26;;;;;;;19.95;12.15;;;;;;;;;;5060376;28;20172;-84
2024/03/24 11:14:57;;;;;;;29.63;14.32;;;;;;;;;;5272091;23;20058;-80
2024/03/24 11:20:21;;;;;;;24.77;13.63;;;;;;;;;;5164224;23;20054;-80
2024/03/24 11:22:50;;;;;;;25.90;13.98;;;;;;;;;;4948488;28;20037;-78
2024/03/24 11:25:17;;;;;;;31.70;17.08;;;;;;;;;;4964214;28;20128;-80
2024/03/24 11:27:44;;;;;;;24.65;15.18;;;;;;;;;;4968669;28;20125;-80
2024/03/24 11:30:20;;;;;;;23.63;13.10;;;;;;;;;;4987987;28;20117;-80
2024/03/24 11:32:52;;;;;;;30.40;14.93;;;;;;;;;;4963783;28;20035;-79
2024/03/24 11:35:28;;;;;;;37.85;17.40;;;;;;;;;;4980657;28;20058;-77
2024/03/24 11:37:54;;;;;;;26.40;14.52;;;;;;;;;;4970048;28;20059;-78
2024/03/24 11:40:21;;;;;;;22.02;13.07;;;;;;;;;;4986075;28;20149;-76
2024/03/24 11:42:50;;;;;;;25.92;13.98;;;;;;;;;;4964123;28;20038;-78
2024/03/24 11:45:33;;;;;;;23.92;18.15;;;;;;;;;;4963392;28;20291;-76
2024/03/24 11:48:14;;;;;;;23.75;14.48;;;;;;;;;;4953378;28;20055;-78
2024/03/24 11:50:41;;;;;;;26.33;14.52;;;;;;;;;;4953991;28;20039;-78
2024/03/24 11:53:07;;;;;;;27.75;13.88;;;;;;;;;;4954994;28;20526;-80
2024/03/24 11:55:33;;;;;;;29.20;14.23;;;;;;;;;;4964622;28;20118;-77
2024/03/24 11:57:58;;;;;;;28.52;15.52;;;;;;;;;;4953683;28;20427;-79
2024/03/24 12:00:24;;;;;;;24.80;13.80;;;;;;;;;;4948920;28;20027;-83
2024/03/24 12:02:50;;;;;;;37.53;17.52;;;;;;;;;;4946382;28;20502;-79
2024/03/24 12:05:16;;;;;;;34.22;16.75;;;;;;;;;;4918507;28;20035;-78
2024/03/24 12:07:41;;;;;;;17.38;11.77;;;;;;;;;;4936766;28;20048;-80
2024/03/24 12:10:07;;;;;;;29.73;14.07;;;;;;;;;;4946827;28;20143;-81
2024/03/24 12:12:33;;;;;;;21.30;12.60;;;;;;;;;;4939528;28;20392;-79
2024/03/24 12:14:59;;;;;;;30.60;16.00;;;;;;;;;;4950589;28;20063;-82
2024/03/24 12:17:25;;;;;;;24.63;13.60;;;;;;;;;;4978790;28;20141;-83
2024/03/24 12:19:51;;;;;;;28.33;15.45;;;;;;;;;;4980084;28;20062;-84
2024/03/24 12:25:14;;;;;;;20.85;11.95;;;;;;;;;;4965291;28;20047;-83
2024/03/24 12:27:40;;;;;;;14.05;10.68;;;;;;;;;;5072602;23;20058;-84
2024/03/24 12:30:06;;;;;;;24.73;13.75;;;;;;;;;;4972207;28;20042;-84
2024/03/24 12:35:17;;;;;;;26.20;13.00;;;;;;;;;;4993532;28;20110;-81
2024/03/24 12:37:46;;;;;;;15.57;10.25;;;;;;;;;;5002914;28;20582;-81
2024/03/24 12:40:16;;;;;;;19.50;12.63;;;;;;;;;;4984421;28;20042;-82
2024/03/24 12:42:44;;;;;;;23.63;12.48;;;;;;;;;;4990593;28;20038;-82
2024/03/24 12:45:10;;;;;;;17.27;11.23;;;;;;;;;;4988428;28;20023;-84
2024/03/24 12:47:36;;;;;;;26.05;13.38;;;;;;;;;;4989305;28;20045;-85
2024/03/24 12:50:03;;;;;;;17.35;11.90;;;;;;;;;;5002922;28;20035;-82
2024/03/24 12:52:29;;;;;;;18.20;10.52;;;;;;;;;;4994339;28;20027;-83
2024/03/24 12:54:55;;;;;;;21.67;12.75;;;;;;;;;;4993988;28;20022;-85
2024/03/24 12:57:21;;;;;;;27.05;15.15;;;;;;;;;;4984002;28;20095;-82
2024/03/24 12:59:54;;;;;;;31.20;17.23;;;;;;;;;;4982489;28;20590;-84
2024/03/24 13:02:20;;;;;;;25.88;13.30;;;;;;;;;;4985161;28;20031;-83
2024/03/24 13:04:46;;;;;;;31.80;14.90;;;;;;;;;;4975339;28;20282;-83
2024/03/24 13:07:12;;;;;;;21.92;11.82;;;;;;;;;;4975391;28;20050;-83
2024/03/24 13:09:38;;;;;;;14.52;10.07;;;;;;;;;;4975513;28;20035;-82
2024/03/24 13:12:04;;;;;;;20.70;13.30;;;;;;;;;;5149104;23;20068;-83
2024/03/24 13:14:30;;;;;;;19.88;14.45;;;;;;;;;;4981776;28;20019;-85
2024/03/24 13:17:15;;;;;;;25.70;15.32;;;;;;;;;;4965648;28;20092;-83
2024/03/24 13:19:41;;;;;;;19.73;12.60;;;;;;;;;;4970574;28;20579;-81
2024/03/24 13:22:07;;;;;;;18.90;11.75;;;;;;;;;;4972411;28;20052;-78
2024/03/24 13:24:35;;;;;;;15.60;9.70;;;;;;;;;;4974676;28;20097;-80
2024/03/24 13:27:03;;;;;;;21.80;12.40;;;;;;;;;;4972503;28;20035;-81
2024/03/24 13:29:29;;;;;;;18.38;11.38;;;;;;;;;;4990113;28;20086;-83
2024/03/24 13:31:55;;;;;;;23.60;14.20;;;;;;;;;;4992393;28;20038;-81
2024/03/24 13:34:21;;;;;;;16.05;11.65;;;;;;;;;;5306850;23;20050;-81
2024/03/24 13:36:48;;;;;;;14.73;11.35;;;;;;;;;;4979935;28;20078;-80
2024/03/24 13:39:16;;;;;;;24.13;14.18;;;;;;;;;;4983856;28;20049;-85
2024/03/24 13:44:33;;;;;;;24.10;15.57;;;;;;;;;;4969383;28;20035;-82
2024/03/24 13:47:08;;;;;;;20.27;12.65;;;;;;;;;;4957801;28;20534;-80
2024/03/24 13:49:34;;;;;;;21.23;13.38;;;;;;;;;;4974080;28;20129;-81
2024/03/24 13:52:00;;;;;;;23.75;15.55;;;;;;;;;;4951075;28;20508;-82
2024/03/24 13:54:26;;;;;;;15.57;12.70;;;;;;;;;;4941936;29;20485;-81
2024/03/24 13:56:52;;;;;;;16.83;13.02;;;;;;;;;;4959719;28;20205;-83
2024/03/24 13:59:18;;;;;;;19.75;13.27;;;;;;;;;;4964027;28;20379;-85
2024/03/24 14:01:44;;;;;;;19.85;14.90;;;;;;;;;;4954611;28;20031;-84
2024/03/24 14:04:09;;;;;;;18.15;11.15;;;;;;;;;;4970315;28;20054;-86
2024/03/24 14:09:31;;;;;;;17.90;12.80;;;;;;;;;;4766210;26;20803;-84
2024/03/24 14:11:57;;;;;;;25.02;19.10;;;;;;;;;;4978037;28;20043;-83
2024/03/24 14:14:28;;;;;;;20.35;14.98;;;;;;;;;;4963997;28;20069;-81
2024/03/24 14:16:54;;;;;;;;;;;;;;;;;;4966197;28;20047;-81
2024/03/24 14:19:23;;;;;;;12.73;11.10;;;;;;;;;;4980080;28;19918;-79
2024/03/24 14:21:52;;;;;;;12.73;11.25;;;;;;;;;;4975193;28;20042;-85
2024/03/24 14:24:21;;;;;;;12.32;11.20;;;;;;;;;;5099471;23;20044;-85
2024/03/24 14:26:47;;;;;;;13.77;11.82;;;;;;;;;;5141999;23;20058;-86
2024/03/24 14:29:13;;;;;;;15.63;12.55;;;;;;;;;;5003967;28;20038;-85
2024/03/24 14:31:39;;;;;;;13.38;10.57;;;;;;;;;;4999082;28;20030;-80
2024/03/24 14:34:05;;;;;;;10.82;9.80;;;;;;;;;;4996866;28;20038;-83
2024/03/24 14:36:45;;;;;;;16.95;13.23;;;;;;;;;;4991963;28;20038;-83
2024/03/24 14:39:29;;;;;;;18.08;12.57;;;;;;;;;;4982642;28;20042;-83
2024/03/24 14:41:59;;;;;;;15.70;12.88;;;;;;;;;;5015327;28;20177;-82
2024/03/24 14:44:52;;;;;;;15.83;13.60;;;;;;;;;;4986089;28;20038;-82
2024/03/24 14:47:21;;;;;;;16.58;13.32;;;;;;;;;;4968384;28;20506;-80